aviador You're here:

KLNK Decoded Metar

LINCOLN in NE, USA
Report Time2017-08-19 13:54:00
UTC Time2017-08-19 14:54:55
Flight Rules vfr VFR
Wind360° at 04 kt
W.Decomp.*RWY 36: 4.0 kt HW 0.4 kt LCW
RWY 35: 4.0 kt HW 0.3 kt RCW
RWY 32: 3.3 kt HW 2.2 kt RCW
Visibility9999 m
Phenomena:N/A
Clouds:N/A
Expected CloudBase > 1,200 ft AGL from Temp-Dew spread
CeilingNone
Temp20°C (ISA +7)
Dew Point17°C (83% RH)
QNH1016 hPa
Density Alt2,218 ft
Elevation1,194 ft
Report Wrong Elevation
Raw Report
METAR KLNK 191354Z 36004KT 10SM CLR 20/17 A2999 RMK AO2 SLP146 T02000167=

Extra information for KLNK:More info

Metar Taf Metar & Taf Last 4 Metars F.Rules Stats Wind Profile Meteogram Temp Stats Airport Information Weather charts Add Link Nearby VenuesMetar ALERT Operation Metar Decoded Social comments

AIRNAV info for KLNK